• Join FlightAware (Why Join?)
  • Login
  • US Flag 
07:44AM EST


 

Airport Tracker/Info


-or-


 

Live Flight TrackerFlight Track Log ✈ UCA3597 ✈ 04-Dec-2013 ✈ KIAD - KBGM

Flight Track Log - Related Links

Times and Time Zones

All times are in EST time to prevent confusion due to time zone crossing. See the UCA3597 flight status page for this flight to view local times or setup timezone preferences in your user account.

Time Position Orientation Groundspeed Altitude Reporting Facility
EST Latitude Longitude Course Direction KTS MPH feet Rate Location/Type
05:49PM 39.3969 -77.2647 19° North  Level Estimated
05:50PM 39.4611 -77.2367 19° North  Level Estimated
05:51PM 39.5253 -77.2085 19° North  Level Estimated
05:52PM 39.5895 -77.1803 19° North  Level Estimated
05:53PM 39.6536 -77.1521 19° North  Level Estimated
05:54PM 39.7178 -77.1238 19° North  Level Estimated
05:55PM 39.7819 -77.0954 19° North  Level Estimated
05:56PM 39.8461 -77.0670 19° North  Level Estimated
05:57PM 39.9102 -77.0386 19° North  Level Estimated
05:58PM 39.9743 -77.0101 19° North  Level Estimated
05:59PM 40.0384 -76.9815 19° North  Level Estimated
06:00PM 40.1026 -76.9529 19° North  Level Estimated
06:01PM 40.1667 -76.9242 19° North  Level Estimated
06:02PM 40.2308 -76.8955 19° North  Level Estimated
06:03PM 40.2949 -76.8667 19° North  Level Estimated
06:04PM 40.3590 -76.8379 19° North  Level Estimated
06:05PM 40.4230 -76.8090 19° North  Level Estimated
06:06PM 40.4871 -76.7800 19° North  Level Estimated
06:07PM 40.5512 -76.7510 19° North  Level Estimated
06:08PM 40.6152 -76.7220 19° North  Level Estimated
06:09PM 40.6793 -76.6928 19° North  Level Estimated
06:10PM 40.7433 -76.6637 19° North  Level Estimated
06:11PM 40.8074 -76.6345 19° North  Level Estimated
06:12PM 40.8714 -76.6052 19° North  Level Estimated
06:13PM 40.9354 -76.5758 19° North  Level Estimated
06:14PM 40.9994 -76.5464 19° North  Level Estimated
06:15PM 41.0634 -76.5170 19° North  Level Estimated
06:16PM 41.1274 -76.4875 19° North  Level Estimated
06:17PM 41.1914 -76.4579 19° North  Level Estimated
06:18PM 41.2554 -76.4283 19° North  Level Estimated
06:19PM 41.3194 -76.3986 19° North  Level Estimated
06:20PM 41.3834 -76.3689 19° North  Level Estimated
06:21PM 41.4473 -76.3391 19° North  Level Estimated
06:22PM 41.5113 -76.3092 19° North  Level Estimated
06:23PM 41.5752 -76.2793 19° North  Level Estimated
06:24PM 41.6392 -76.2493 19° North  Level Estimated
06:25PM 41.7031 -76.2193 19° North  Level Estimated
06:26PM 41.7670 -76.1892 19° North  Level Estimated
06:27PM 41.8309 -76.1590 19° North  Level Estimated
06:28PM 41.8948 -76.1288 19° North  Level Estimated
06:29PM 41.9587 -76.0985 19° North  Level Estimated
06:30PM 42.0226 -76.0682 19° North  Level Estimated
06:31PM 42.0865 -76.0378 19° North  Level Estimated
06:32PM 42.1504 -76.0073 19° North  Level Estimated
06:33PM 42.2084 -75.9796 19° North  Level Estimated
06:34PM 42.2084 -75.9796 35° Northeast  Level Estimated
06:35PM 42.2084 -75.9796 35° Northeast  Level Estimated
06:36PM 42.2084 -75.9796 35° Northeast  Level Estimated
06:37PM 42.2084 -75.9796 35° Northeast  Level Estimated
06:38PM 42.2084 -75.9796 35° Northeast  Level Estimated
06:39PM 42.2084 -75.9796 35° Northeast  Level Estimated
06:40PM 42.2084 -75.9796 35° Northeast  Level Estimated
06:41PM 42.2084 -75.9796 35° Northeast  Level Estimated
06:42PM 42.2084 -75.9796 35° Northeast  Level Estimated
06:43PM 42.2084 -75.9796 35° Northeast  Level Estimated
06:44PM 42.2084 -75.9796 35° Northeast  Level Estimated
06:45PM 42.2084 -75.9796 35° Northeast  Level Estimated
06:46PM 42.2084 -75.9796 35° Northeast  Level Estimated
06:47PM 42.2084 -75.9796 35° Northeast  Level Estimated
06:48PM 42.2084 -75.9796 35° Northeast  Level Estimated
06:49PM 42.2084 -75.9796 35° Northeast  Level Estimated